createdAt,value
2018-08-04T00:01:13.515Z,4.25
2018-08-04T00:03:46.919Z,3.90
2018-08-04T00:06:20.319Z,3.62
2018-08-04T00:08:53.702Z,3.83
2018-08-04T00:11:27.119Z,3.30
2018-08-04T00:14:00.539Z,2.80
2018-08-04T00:16:34.119Z,2.70
2018-08-04T00:19:07.779Z,2.72
2018-08-04T00:21:41.180Z,2.65
2018-08-04T00:24:14.588Z,3.80
2018-08-04T00:26:47.978Z,3.80
2018-08-04T00:29:21.413Z,4.12
2018-08-04T00:31:54.827Z,3.60
2018-08-04T00:34:28.273Z,3.80
2018-08-04T00:37:01.652Z,4.15
2018-08-04T00:39:35.052Z,3.72
2018-08-04T00:42:08.558Z,3.40
2018-08-04T00:44:41.972Z,3.15
2018-08-04T00:47:15.382Z,3.12
2018-08-04T00:49:48.783Z,3.47
2018-08-04T00:52:22.254Z,3.47
2018-08-04T00:54:56.042Z,3.55
2018-08-04T00:57:29.556Z,2.67
2018-08-04T01:00:03.105Z,2.87
2018-08-04T01:02:36.587Z,2.80
2018-08-04T01:05:10.015Z,2.80
2018-08-04T01:07:43.481Z,2.70
2018-08-04T01:10:16.925Z,2.60
2018-08-04T01:12:50.318Z,2.70
2018-08-04T01:15:23.715Z,2.75
2018-08-04T01:17:57.091Z,2.70
2018-08-04T01:20:30.507Z,2.75
2018-08-04T01:23:03.921Z,2.60
2018-08-04T01:25:38.284Z,3.10
2018-08-04T01:28:11.664Z,3.02
2018-08-04T01:30:45.065Z,2.98
2018-08-04T01:33:18.490Z,2.30
2018-08-04T01:35:51.955Z,3.00
2018-08-04T01:38:25.371Z,2.80
2018-08-04T01:40:58.868Z,2.77
2018-08-04T01:43:32.316Z,2.52
2018-08-04T01:46:05.786Z,2.72
2018-08-04T01:48:39.178Z,2.70
2018-08-04T01:51:13.110Z,2.50
2018-08-04T01:53:46.579Z,2.72
2018-08-04T01:56:19.977Z,2.98
2018-08-04T01:58:53.531Z,3.02
2018-08-04T02:01:27.040Z,2.90
2018-08-04T02:04:00.743Z,2.75
2018-08-04T02:06:34.375Z,2.83
2018-08-04T02:09:08.871Z,2.72
2018-08-04T02:11:42.259Z,2.87
2018-08-04T02:14:15.635Z,3.00
2018-08-04T02:16:49.706Z,3.10
2018-08-04T02:19:23.158Z,2.47
2018-08-04T02:21:56.627Z,2.80
2018-08-04T02:24:30.011Z,3.00
2018-08-04T02:27:03.431Z,3.10
2018-08-04T02:29:36.859Z,3.15
2018-08-04T02:32:10.266Z,2.72
2018-08-04T02:34:43.679Z,2.50
2018-08-04T02:37:17.099Z,2.60
2018-08-04T02:39:50.523Z,2.37
2018-08-04T02:42:23.926Z,2.35
2018-08-04T02:44:57.314Z,2.90
2018-08-04T02:47:30.708Z,2.45
2018-08-04T02:50:04.159Z,2.35
2018-08-04T02:52:37.556Z,2.58
2018-08-04T02:55:10.950Z,2.60
2018-08-04T02:57:44.392Z,2.20
2018-08-04T03:00:17.856Z,2.30
2018-08-04T03:02:51.284Z,3.08
2018-08-04T03:05:24.697Z,2.42
2018-08-04T03:07:58.108Z,2.30
2018-08-04T03:10:31.519Z,2.52
2018-08-04T03:13:04.966Z,2.15
2018-08-04T03:15:38.380Z,2.50
2018-08-04T03:18:11.963Z,2.35
2018-08-04T03:20:45.358Z,2.72
2018-08-04T03:23:18.927Z,2.33
2018-08-04T03:25:52.412Z,2.83
2018-08-04T03:28:25.956Z,2.27
2018-08-04T03:30:59.379Z,2.00
2018-08-04T03:33:32.915Z,2.33
2018-08-04T03:36:06.349Z,3.00
2018-08-04T03:38:39.851Z,2.35
2018-08-04T03:41:13.223Z,2.70
2018-08-04T03:43:46.763Z,2.67
2018-08-04T03:46:20.226Z,2.60
2018-08-04T03:48:53.613Z,2.50
2018-08-04T03:51:26.990Z,2.35
2018-08-04T03:54:00.382Z,2.40
2018-08-04T03:56:33.819Z,2.33
2018-08-04T03:59:07.236Z,2.00
2018-08-04T04:01:40.667Z,2.33
2018-08-04T04:04:14.051Z,2.25
2018-08-04T04:06:47.508Z,2.40
2018-08-04T04:09:20.898Z,2.77
2018-08-04T04:11:54.333Z,2.20
2018-08-04T04:14:27.801Z,2.85
2018-08-04T04:17:01.240Z,2.12
2018-08-04T04:19:34.615Z,2.60
2018-08-04T04:22:08.084Z,2.33
2018-08-04T04:24:41.470Z,2.15
2018-08-04T04:27:14.963Z,2.75
2018-08-04T04:29:48.329Z,2.40
2018-08-04T04:32:21.768Z,2.47
2018-08-04T04:34:55.140Z,2.12
2018-08-04T04:37:28.538Z,2.12
2018-08-04T04:40:02.245Z,2.20
2018-08-04T04:42:35.723Z,2.05
2018-08-04T04:45:09.133Z,2.50
2018-08-04T04:47:42.559Z,2.35
2018-08-04T04:50:15.915Z,2.47
2018-08-04T04:52:49.399Z,2.35
2018-08-04T04:55:22.883Z,2.65
2018-08-04T04:57:56.291Z,2.17
2018-08-04T05:00:29.681Z,2.50
2018-08-04T05:03:03.104Z,2.50
2018-08-04T05:05:36.504Z,2.25
2018-08-04T05:08:10.019Z,2.25
2018-08-04T05:10:43.432Z,2.02
2018-08-04T05:13:17.002Z,2.25
2018-08-04T05:15:50.401Z,2.20
2018-08-04T05:18:23.807Z,2.05
2018-08-04T05:20:57.202Z,2.65
2018-08-04T05:23:30.664Z,2.20
2018-08-04T05:26:04.092Z,2.00
2018-08-04T05:28:37.533Z,2.50
2018-08-04T05:31:11.022Z,2.27
2018-08-04T05:33:44.427Z,2.45
2018-08-04T05:36:17.836Z,2.33
2018-08-04T05:38:51.251Z,2.17
2018-08-04T05:41:24.736Z,2.55
2018-08-04T05:43:58.185Z,2.17
2018-08-04T05:46:31.618Z,1.85
2018-08-04T05:49:05.046Z,2.30
2018-08-04T05:51:38.487Z,2.30
2018-08-04T05:54:11.921Z,2.08
2018-08-04T05:56:45.323Z,2.10
2018-08-04T05:59:18.929Z,2.40
2018-08-04T06:01:52.370Z,2.27
2018-08-04T06:04:25.814Z,2.60
2018-08-04T06:06:59.229Z,2.40
2018-08-04T06:09:32.631Z,2.40
2018-08-04T06:12:06.095Z,2.70
2018-08-04T06:14:39.546Z,2.67
2018-08-04T06:17:12.953Z,2.20
2018-08-04T06:19:46.372Z,2.15
2018-08-04T06:22:19.838Z,2.27
2018-08-04T06:24:53.318Z,2.20
2018-08-04T06:27:26.758Z,2.55
2018-08-04T06:30:00.199Z,2.22
2018-08-04T06:32:33.617Z,2.60
2018-08-04T06:35:07.162Z,2.33
2018-08-04T06:37:40.634Z,2.37
2018-08-04T06:40:14.076Z,2.42
2018-08-04T06:42:47.488Z,2.33
2018-08-04T06:45:20.948Z,2.42
2018-08-04T06:47:54.512Z,2.20
2018-08-04T06:50:28.028Z,2.20
2018-08-04T06:53:01.492Z,2.60
2018-08-04T06:55:34.902Z,2.30
2018-08-04T06:58:08.369Z,2.67
2018-08-04T07:00:41.866Z,2.42
2018-08-04T07:03:15.261Z,2.20
2018-08-04T07:05:49.016Z,2.37
2018-08-04T07:08:22.574Z,2.35
2018-08-04T07:10:56.021Z,2.67
2018-08-04T07:13:29.400Z,2.55
2018-08-04T07:16:03.005Z,2.40
2018-08-04T07:18:36.529Z,2.10
2018-08-04T07:21:09.937Z,2.25
2018-08-04T07:23:43.408Z,2.33
2018-08-04T07:26:16.783Z,2.17
2018-08-04T07:28:50.178Z,2.10
2018-08-04T07:31:23.569Z,2.50
2018-08-04T07:33:57.033Z,2.30
2018-08-04T07:36:30.529Z,2.42
2018-08-04T07:39:04.868Z,2.25
2018-08-04T07:41:38.327Z,2.20
2018-08-04T07:44:11.783Z,2.55
2018-08-04T07:46:45.272Z,2.40
2018-08-04T07:49:18.683Z,2.10
2018-08-04T07:51:52.385Z,2.27
2018-08-04T07:54:25.779Z,2.70
2018-08-04T07:56:59.626Z,2.87
2018-08-04T07:59:33.154Z,2.35
2018-08-04T08:02:07.306Z,2.22
2018-08-04T08:04:40.805Z,2.30
2018-08-04T08:07:14.291Z,2.33
2018-08-04T08:09:47.918Z,2.62
2018-08-04T08:12:21.476Z,2.60
2018-08-04T08:14:54.909Z,2.77
2018-08-04T08:17:28.361Z,2.50
2018-08-04T08:20:01.801Z,2.27
2018-08-04T08:22:40.238Z,2.30
2018-08-04T08:25:13.725Z,2.47
2018-08-04T08:27:47.158Z,2.33
2018-08-04T08:30:20.687Z,2.62
2018-08-04T08:32:54.211Z,2.55
2018-08-04T08:35:27.631Z,2.20
2018-08-04T08:38:01.048Z,2.30
2018-08-04T08:40:34.458Z,2.40
2018-08-04T08:43:09.598Z,2.62
2018-08-04T08:45:43.140Z,2.35
2018-08-04T08:48:16.552Z,2.27
2018-08-04T08:50:49.991Z,2.50
2018-08-04T08:53:23.991Z,2.40
2018-08-04T08:55:58.614Z,2.27
2018-08-04T08:58:32.477Z,2.40
2018-08-04T09:01:06.127Z,2.60
2018-08-04T09:03:40.626Z,2.08
2018-08-04T09:06:14.489Z,2.10
2018-08-04T09:08:47.913Z,1.98
2018-08-04T09:11:21.380Z,2.50
2018-08-04T09:13:54.880Z,2.22
2018-08-04T09:16:28.316Z,2.30
2018-08-04T09:19:01.760Z,2.45
2018-08-04T09:21:35.641Z,1.80
2018-08-04T09:24:09.035Z,2.37
2018-08-04T09:26:42.465Z,2.70
2018-08-04T09:29:15.882Z,2.00
2018-08-04T09:31:49.490Z,2.20
2018-08-04T09:34:23.002Z,2.30
2018-08-04T09:36:56.487Z,2.08
2018-08-04T09:39:29.919Z,2.20
2018-08-04T09:42:03.348Z,2.25
2018-08-04T09:44:36.845Z,2.10
2018-08-04T09:47:10.259Z,2.30
2018-08-04T09:49:43.769Z,2.20
2018-08-04T09:52:17.211Z,2.40
2018-08-04T09:54:50.613Z,2.27
2018-08-04T09:57:24.336Z,2.40
2018-08-04T09:59:57.757Z,2.30
2018-08-04T10:02:31.204Z,2.25
2018-08-04T10:05:04.733Z,2.40
2018-08-04T10:07:38.836Z,2.70
2018-08-04T10:10:12.455Z,2.70
2018-08-04T10:12:45.860Z,2.40
2018-08-04T10:15:19.410Z,2.60
2018-08-04T10:17:52.844Z,2.60
2018-08-04T10:20:26.537Z,2.40
2018-08-04T10:23:00.036Z,2.33
2018-08-04T10:25:33.456Z,2.72
2018-08-04T10:28:06.858Z,2.35
2018-08-04T10:30:40.412Z,2.22
2018-08-04T10:33:13.860Z,2.10
2018-08-04T10:35:47.336Z,2.25
2018-08-04T10:38:20.782Z,2.50
2018-08-04T10:40:55.819Z,2.50
2018-08-04T10:43:29.426Z,2.25
2018-08-04T10:46:02.953Z,2.35
2018-08-04T10:48:36.351Z,2.65
2018-08-04T10:51:10.423Z,2.08
2018-08-04T10:53:43.976Z,2.12
2018-08-04T10:56:17.464Z,1.98
2018-08-04T10:58:50.952Z,2.70
2018-08-04T11:01:24.402Z,2.15
2018-08-04T11:03:58.079Z,2.15
2018-08-04T11:06:31.528Z,2.27
2018-08-04T11:09:08.097Z,2.30
2018-08-04T11:11:41.519Z,2.12
2018-08-04T11:14:15.022Z,2.25
2018-08-04T11:16:48.799Z,2.22
2018-08-04T11:19:22.677Z,2.37
2018-08-04T11:21:57.607Z,2.35
2018-08-04T11:24:35.883Z,2.52
2018-08-04T11:27:09.647Z,2.67
2018-08-04T11:29:43.280Z,5.87
2018-08-04T11:32:16.949Z,3.37
2018-08-04T11:34:50.671Z,3.27
2018-08-04T11:37:24.425Z,2.90
2018-08-04T11:39:58.012Z,2.85
2018-08-04T11:42:31.682Z,2.92
2018-08-04T11:45:06.627Z,3.22
2018-08-04T11:47:40.272Z,3.00
2018-08-04T11:50:15.095Z,2.50
2018-08-04T11:52:48.849Z,3.02
2018-08-04T11:55:22.862Z,3.08
2018-08-04T11:57:56.717Z,2.75
2018-08-04T12:00:30.225Z,8.98
2018-08-04T12:03:03.670Z,8.88
2018-08-04T12:05:37.147Z,2.95
2018-08-04T12:08:10.627Z,2.60
2018-08-04T12:10:44.279Z,2.70
2018-08-04T12:13:17.679Z,4.20
2018-08-04T12:15:51.096Z,2.80
2018-08-04T12:18:24.495Z,2.70
2018-08-04T12:20:57.888Z,2.37
2018-08-04T12:23:31.325Z,2.50
2018-08-04T12:26:06.818Z,2.70
2018-08-04T12:28:40.336Z,2.60
2018-08-04T12:31:13.780Z,5.60
2018-08-04T12:33:47.191Z,2.40
2018-08-04T12:36:20.647Z,2.52
2018-08-04T12:38:54.073Z,2.60
2018-08-04T12:41:27.469Z,3.25
2018-08-04T12:44:00.922Z,2.52
2018-08-04T12:46:34.400Z,2.58
2018-08-04T12:49:08.043Z,2.20
2018-08-04T12:51:41.569Z,2.62
2018-08-04T12:54:15.069Z,2.65
2018-08-04T12:56:48.495Z,2.35
2018-08-04T12:59:21.995Z,2.22
2018-08-04T13:01:55.451Z,2.58
2018-08-04T13:04:30.067Z,2.20
2018-08-04T13:07:03.635Z,2.50
2018-08-04T13:09:37.330Z,2.25
2018-08-04T13:12:10.728Z,2.58
2018-08-04T13:14:45.247Z,1.98
2018-08-04T13:17:18.587Z,2.40
2018-08-04T13:19:53.056Z,2.15
2018-08-04T13:22:26.464Z,2.20
2018-08-04T13:24:59.960Z,2.20
2018-08-04T13:27:33.440Z,2.08
2018-08-04T13:30:07.000Z,2.10
2018-08-04T13:32:41.186Z,2.00
2018-08-04T13:35:14.569Z,2.17
2018-08-04T13:37:48.253Z,1.98
2018-08-04T13:40:21.664Z,1.90
2018-08-04T13:42:55.051Z,2.17
2018-08-04T13:45:28.338Z,2.10
2018-08-04T13:48:01.644Z,2.10
2018-08-04T13:50:35.017Z,1.90
2018-08-04T13:53:08.770Z,1.92
2018-08-04T13:55:42.097Z,1.92
2018-08-04T13:58:17.037Z,2.10
2018-08-04T14:00:50.411Z,1.90
2018-08-04T14:03:23.772Z,1.92
2018-08-04T14:05:57.118Z,1.80
2018-08-04T14:08:30.406Z,2.00
2018-08-04T14:11:04.256Z,1.77
2018-08-04T14:13:37.939Z,2.20
2018-08-04T14:16:11.288Z,2.17
2018-08-04T14:18:44.625Z,2.25
2018-08-04T14:21:17.941Z,2.20
2018-08-04T14:23:51.216Z,2.17
2018-08-04T14:26:24.532Z,2.00
2018-08-04T14:28:57.921Z,1.90
2018-08-04T14:31:31.276Z,1.70
2018-08-04T14:34:04.650Z,2.40
2018-08-04T14:36:37.987Z,2.08
2018-08-04T14:39:12.783Z,1.90
2018-08-04T14:41:46.096Z,2.20
2018-08-04T14:44:19.376Z,2.12
2018-08-04T14:46:52.693Z,2.00
2018-08-04T14:49:25.988Z,1.90
2018-08-04T14:51:59.308Z,1.80
2018-08-04T14:54:32.664Z,1.80
2018-08-04T14:57:06.415Z,1.98
2018-08-04T14:59:39.808Z,1.92
2018-08-04T15:02:13.102Z,2.50
2018-08-04T15:04:46.449Z,2.20
2018-08-04T15:07:19.760Z,2.10
2018-08-04T15:09:53.087Z,2.12
2018-08-04T15:12:26.413Z,1.98
2018-08-04T15:14:59.742Z,2.20
2018-08-04T15:17:33.051Z,2.20
2018-08-04T15:20:07.271Z,2.05
2018-08-04T15:22:40.592Z,1.70
2018-08-04T15:25:13.905Z,2.05
2018-08-04T15:27:47.218Z,2.10
2018-08-04T15:30:20.559Z,2.58
2018-08-04T15:32:53.853Z,2.05
2018-08-04T15:35:27.152Z,2.27
2018-08-04T15:38:00.682Z,2.08
2018-08-04T15:40:34.174Z,2.70
2018-08-04T15:43:07.601Z,2.47
2018-08-04T15:45:40.929Z,2.15
2018-08-04T15:48:14.264Z,1.90
2018-08-04T15:50:47.789Z,2.35
2018-08-04T15:53:21.083Z,2.12
2018-08-04T15:55:54.384Z,2.52
2018-08-04T15:58:27.676Z,2.65
2018-08-04T16:01:01.013Z,2.25
2018-08-04T16:03:34.493Z,2.30
2018-08-04T16:06:07.927Z,2.00
2018-08-04T16:08:41.204Z,1.85
2018-08-04T16:11:14.533Z,2.12
2018-08-04T16:13:47.804Z,2.10
2018-08-04T16:16:21.124Z,2.30
2018-08-04T16:18:54.407Z,1.98
2018-08-04T16:21:27.724Z,2.10
2018-08-04T16:24:01.146Z,2.30
2018-08-04T16:26:34.453Z,2.37
2018-08-04T16:29:07.809Z,2.12
2018-08-04T16:31:41.127Z,1.92
2018-08-04T16:34:14.486Z,2.20
2018-08-04T16:36:47.791Z,2.20
2018-08-04T16:39:21.138Z,2.05
2018-08-04T16:41:54.495Z,2.17
2018-08-04T16:44:27.776Z,1.90
2018-08-04T16:47:01.209Z,1.98
2018-08-04T16:49:34.502Z,2.45
2018-08-04T16:52:07.855Z,1.80
2018-08-04T16:54:41.144Z,2.05
2018-08-04T16:57:14.564Z,1.90
2018-08-04T16:59:47.892Z,2.27
2018-08-04T17:02:21.216Z,1.90
2018-08-04T17:04:54.623Z,1.65
2018-08-04T17:07:27.994Z,2.08
2018-08-04T17:10:02.168Z,2.17
2018-08-04T17:12:35.633Z,1.80
2018-08-04T17:15:09.036Z,1.80
2018-08-04T17:17:42.548Z,2.12
2018-08-04T17:20:15.910Z,2.05
2018-08-04T17:22:49.261Z,2.35
2018-08-04T17:25:22.724Z,1.85
2018-08-04T17:27:56.142Z,1.72
2018-08-04T17:30:29.573Z,1.87
2018-08-04T17:33:02.944Z,1.80
2018-08-04T17:35:36.480Z,2.08
2018-08-04T17:38:09.852Z,1.77
2018-08-04T17:40:43.167Z,1.60
2018-08-04T17:43:16.488Z,1.85
2018-08-04T17:45:49.816Z,2.02
2018-08-04T17:48:23.647Z,1.57
2018-08-04T17:50:57.013Z,1.70
2018-08-04T17:53:30.343Z,1.87
2018-08-04T17:56:03.661Z,1.62
2018-08-04T17:58:37.071Z,2.20
2018-08-04T18:01:10.357Z,1.65
2018-08-04T18:03:43.744Z,2.00
2018-08-04T18:06:17.098Z,2.17
2018-08-04T18:08:50.421Z,1.52
2018-08-04T18:11:23.771Z,1.87
2018-08-04T18:13:57.106Z,1.62
2018-08-04T18:16:30.637Z,2.00
2018-08-04T18:19:04.006Z,1.80
2018-08-04T18:21:37.391Z,1.85
2018-08-04T18:24:10.725Z,1.75
2018-08-04T18:26:44.020Z,1.92
2018-08-04T18:29:17.415Z,1.87
2018-08-04T18:31:50.692Z,2.00
2018-08-04T18:34:24.169Z,1.92
2018-08-04T18:36:57.485Z,1.60
2018-08-04T18:39:30.789Z,1.65
2018-08-04T18:42:04.156Z,2.10
2018-08-04T18:44:37.502Z,2.10
2018-08-04T18:47:10.960Z,1.95
2018-08-04T18:49:44.357Z,1.98
2018-08-04T18:52:17.679Z,1.72
2018-08-04T18:54:50.972Z,1.82
2018-08-04T18:57:24.288Z,1.90
2018-08-04T18:59:57.647Z,2.17
2018-08-04T19:02:31.179Z,1.67
2018-08-04T19:05:04.512Z,1.70
2018-08-04T19:07:37.837Z,1.82
2018-08-04T19:10:11.175Z,1.75
2018-08-04T19:12:44.505Z,1.98
2018-08-04T19:15:17.884Z,1.60
2018-08-04T19:17:51.252Z,1.75
2018-08-04T19:20:24.576Z,1.50
2018-08-04T19:22:58.054Z,1.60
2018-08-04T19:25:31.515Z,1.30
2018-08-04T19:28:05.048Z,1.57
2018-08-04T19:30:38.421Z,1.80
2018-08-04T19:33:11.799Z,1.82
2018-08-04T19:35:45.295Z,1.40
2018-08-04T19:38:19.104Z,1.45
2018-08-04T19:40:52.458Z,1.70
2018-08-04T19:43:25.789Z,1.25
2018-08-04T19:45:59.096Z,1.50
2018-08-04T19:48:32.553Z,1.70
2018-08-04T19:51:06.100Z,1.57
2018-08-04T19:53:39.444Z,1.30
2018-08-04T19:56:12.758Z,1.62
2018-08-04T19:58:46.161Z,1.47
2018-08-04T20:01:19.489Z,1.70
2018-08-04T20:03:52.948Z,1.60
2018-08-04T20:06:26.299Z,1.65
2018-08-04T20:08:59.748Z,1.60
2018-08-04T20:11:33.063Z,1.67
2018-08-04T20:14:06.492Z,1.55
2018-08-04T20:16:39.900Z,1.45
2018-08-04T20:19:13.216Z,1.62
2018-08-04T20:21:46.724Z,1.80
2018-08-04T20:24:20.060Z,1.60
2018-08-04T20:26:53.422Z,1.60
2018-08-04T20:29:26.818Z,1.60
2018-08-04T20:32:00.133Z,1.80
2018-08-04T20:34:33.749Z,1.67
2018-08-04T20:37:07.101Z,1.57
2018-08-04T20:39:40.419Z,1.90
2018-08-04T20:42:13.724Z,1.80
2018-08-04T20:44:47.156Z,1.80
2018-08-04T20:47:21.215Z,1.42
2018-08-04T20:49:54.640Z,1.70
2018-08-04T20:52:28.030Z,1.57
2018-08-04T20:55:01.440Z,1.57
2018-08-04T20:57:34.980Z,1.45
2018-08-04T21:00:08.409Z,1.50
2018-08-04T21:02:41.720Z,1.87
2018-08-04T21:05:15.087Z,1.82
2018-08-04T21:07:48.380Z,1.80
2018-08-04T21:10:21.746Z,1.98
2018-08-04T21:12:55.046Z,1.75
2018-08-04T21:15:29.098Z,1.92
2018-08-04T21:18:02.671Z,1.60
2018-08-04T21:20:36.004Z,2.02
2018-08-04T21:23:09.303Z,1.80
2018-08-04T21:25:42.639Z,1.80
2018-08-04T21:28:15.939Z,1.60
2018-08-04T21:30:49.996Z,2.10
2018-08-04T21:33:23.316Z,1.80
2018-08-04T21:35:56.700Z,1.90
2018-08-04T21:38:29.989Z,1.87
2018-08-04T21:41:03.306Z,1.62
2018-08-04T21:43:36.689Z,2.00
2018-08-04T21:46:10.020Z,1.55
2018-08-04T21:48:43.309Z,1.80
2018-08-04T21:51:16.625Z,1.85
2018-08-04T21:53:50.187Z,1.70
2018-08-04T21:56:23.509Z,1.92
2018-08-04T21:58:58.169Z,2.08
2018-08-04T22:01:31.534Z,1.50
2018-08-04T22:04:04.939Z,1.95
2018-08-04T22:07:52.409Z,1.90
2018-08-04T22:10:25.868Z,1.77
2018-08-04T22:12:59.269Z,1.72
2018-08-04T22:15:32.556Z,2.00
2018-08-04T22:18:05.900Z,1.90
2018-08-04T22:20:39.226Z,1.90
2018-08-04T22:23:12.541Z,1.85
2018-08-04T22:25:45.856Z,1.57
2018-08-04T22:28:19.145Z,1.75
2018-08-04T22:30:52.460Z,2.30
2018-08-04T22:33:25.998Z,1.65
2018-08-04T22:35:59.279Z,1.90
2018-08-04T22:38:32.734Z,1.98
2018-08-04T22:41:06.271Z,1.87
2018-08-04T22:43:39.598Z,1.85
2018-08-04T22:46:14.934Z,1.67
2018-08-04T22:48:49.698Z,1.90
2018-08-04T22:51:27.208Z,1.77
2018-08-04T22:54:00.501Z,1.70
2018-08-04T22:56:33.817Z,1.70
2018-08-04T22:59:07.131Z,1.77
2018-08-04T23:01:40.437Z,1.67
2018-08-04T23:04:13.735Z,1.80
2018-08-04T23:06:47.101Z,1.95
2018-08-04T23:09:20.412Z,2.10
2018-08-04T23:11:53.761Z,2.02
2018-08-04T23:14:27.081Z,1.70
2018-08-04T23:17:00.384Z,1.90
2018-08-04T23:19:34.797Z,2.10
2018-08-04T23:22:08.124Z,2.00
2018-08-04T23:24:41.444Z,1.95
2018-08-04T23:27:14.748Z,2.12
2018-08-04T23:29:48.076Z,1.77
2018-08-04T23:32:21.375Z,2.05
2018-08-04T23:34:54.773Z,2.10
2018-08-04T23:37:28.337Z,1.95
2018-08-04T23:40:01.797Z,1.92
2018-08-04T23:42:36.190Z,1.67
2018-08-04T23:45:09.593Z,2.17
2018-08-04T23:47:42.979Z,1.75
2018-08-04T23:50:16.314Z,2.00
2018-08-04T23:52:49.793Z,2.10
2018-08-04T23:55:23.273Z,1.90
2018-08-04T23:57:56.596Z,2.05
